sensor_id;sensor_type;location;lat;lon;timestamp;pressure;altitude;pressure_sealevel;temperature;humidity
50696;BME280;36665;51.786;21.594;2023-09-19T00:02:23;95898.45;;;17.39;63.89
50696;BME280;36665;51.786;21.594;2023-09-19T00:10:46;95830.59;;;17.23;64.02
50696;BME280;36665;51.786;21.594;2023-09-19T00:19:12;95769.66;;;17.07;64.08
50696;BME280;36665;51.786;21.594;2023-09-19T00:27:41;95717.19;;;16.95;63.89
50696;BME280;36665;51.786;21.594;2023-09-19T00:36:05;95678.72;;;16.85;63.95
50696;BME280;36665;51.786;21.594;2023-09-19T00:44:30;95660.27;;;16.80;63.84
50696;BME280;36665;51.786;21.594;2023-09-19T00:52:56;95639.31;;;16.75;63.90
50696;BME280;36665;51.786;21.594;2023-09-19T01:01:19;95628.90;;;16.73;64.14
50696;BME280;36665;51.786;21.594;2023-09-19T01:09:44;95627.61;;;16.73;64.01
50696;BME280;36665;51.786;21.594;2023-09-19T01:18:21;95638.73;;;16.75;63.93
50696;BME280;36665;51.786;21.594;2023-09-19T01:35:50;95634.80;;;16.74;64.01
50696;BME280;36665;51.786;21.594;2023-09-19T01:44:19;95640.81;;;16.75;64.01
50696;BME280;36665;51.786;21.594;2023-09-19T01:53:04;95635.55;;;16.74;64.04
50696;BME280;36665;51.786;21.594;2023-09-19T02:01:28;95608.84;;;16.67;64.20
50696;BME280;36665;51.786;21.594;2023-09-19T02:09:59;95563.77;;;16.57;64.29
50696;BME280;36665;51.786;21.594;2023-09-19T02:18:28;95532.75;;;16.48;64.33
50696;BME280;36665;51.786;21.594;2023-09-19T02:26:52;95494.94;;;16.38;64.31
50696;BME280;36665;51.786;21.594;2023-09-19T02:35:16;95470.66;;;16.32;64.32
50696;BME280;36665;51.786;21.594;2023-09-19T02:43:39;95467.02;;;16.31;64.39
50696;BME280;36665;51.786;21.594;2023-09-19T02:52:04;95483.38;;;16.35;64.18
50696;BME280;36665;51.786;21.594;2023-09-19T03:00:29;95515.85;;;16.43;64.28
50696;BME280;36665;51.786;21.594;2023-09-19T03:08:53;95538.54;;;16.48;64.40
50696;BME280;36665;51.786;21.594;2023-09-19T03:17:17;95564.73;;;16.55;64.43
50696;BME280;36665;51.786;21.594;2023-09-19T03:25:43;95614.82;;;16.67;64.41
50696;BME280;36665;51.786;21.594;2023-09-19T03:34:07;95669.73;;;16.80;64.52
50696;BME280;36665;51.786;21.594;2023-09-19T03:42:31;95715.34;;;16.91;64.70
50696;BME280;36665;51.786;21.594;2023-09-19T03:50:55;95760.85;;;17.03;64.63
50696;BME280;36665;51.786;21.594;2023-09-19T03:59:20;95806.02;;;17.13;64.78
50696;BME280;36665;51.786;21.594;2023-09-19T04:07:45;95843.95;;;17.22;64.84
50696;BME280;36665;51.786;21.594;2023-09-19T04:16:10;95873.73;;;17.30;64.87
50696;BME280;36665;51.786;21.594;2023-09-19T04:24:34;95890.52;;;17.33;64.90
50696;BME280;36665;51.786;21.594;2023-09-19T04:32:59;95901.02;;;17.35;64.98
50696;BME280;36665;51.786;21.594;2023-09-19T04:41:26;95902.95;;;17.36;64.98
50696;BME280;36665;51.786;21.594;2023-09-19T04:49:50;95907.90;;;17.36;65.17
50696;BME280;36665;51.786;21.594;2023-09-19T04:58:14;95921.39;;;17.39;65.04
50696;BME280;36665;51.786;21.594;2023-09-19T05:06:37;95916.42;;;17.37;65.30
50696;BME280;36665;51.786;21.594;2023-09-19T05:15:05;95936.36;;;17.41;65.15
50696;BME280;36665;51.786;21.594;2023-09-19T05:23:33;95985.67;;;17.53;65.17
50696;BME280;36665;51.786;21.594;2023-09-19T05:31:58;96046.85;;;17.69;65.37
50696;BME280;36665;51.786;21.594;2023-09-19T05:40:22;96130.96;;;17.88;65.31
50696;BME280;36665;51.786;21.594;2023-09-19T05:48:47;96204.72;;;18.07;65.55
50696;BME280;36665;51.786;21.594;2023-09-19T05:57:10;96291.20;;;18.26;65.60
50696;BME280;36665;51.786;21.594;2023-09-19T06:05:35;96322.28;;;18.34;65.60
50696;BME280;36665;51.786;21.594;2023-09-19T06:13:59;96343.08;;;18.39;65.62
50696;BME280;36665;51.786;21.594;2023-09-19T06:22:24;96352.81;;;18.41;65.79
50696;BME280;36665;51.786;21.594;2023-09-19T06:30:47;96359.55;;;18.42;65.85
50696;BME280;36665;51.786;21.594;2023-09-19T06:39:12;96385.20;;;18.47;65.87
50696;BME280;36665;51.786;21.594;2023-09-19T06:47:36;96423.37;;;18.57;65.85
50696;BME280;36665;51.786;21.594;2023-09-19T06:56:01;96544.95;;;18.85;66.10
50696;BME280;36665;51.786;21.594;2023-09-19T07:04:25;96654.73;;;19.12;66.08
50696;BME280;36665;51.786;21.594;2023-09-19T07:12:56;96696.92;;;19.20;66.17
50696;BME280;36665;51.786;21.594;2023-09-19T07:21:23;96683.74;;;19.17;66.21
50696;BME280;36665;51.786;21.594;2023-09-19T07:29:47;96676.82;;;19.15;66.26
50696;BME280;36665;51.786;21.594;2023-09-19T07:38:15;96737.13;;;19.30;66.27
50696;BME280;36665;51.786;21.594;2023-09-19T07:46:38;96878.70;;;19.63;66.34
50696;BME280;36665;51.786;21.594;2023-09-19T07:55:02;96972.22;;;19.85;66.36
50696;BME280;36665;51.786;21.594;2023-09-19T08:03:33;97043.38;;;20.00;66.38
50696;BME280;36665;51.786;21.594;2023-09-19T08:11:57;97053.15;;;20.02;66.64
50696;BME280;36665;51.786;21.594;2023-09-19T08:20:21;97025.12;;;19.95;66.43
50696;BME280;36665;51.786;21.594;2023-09-19T08:28:46;96997.30;;;19.89;66.75
50696;BME280;36665;51.786;21.594;2023-09-19T08:37:09;97006.19;;;19.90;66.71
50696;BME280;36665;51.786;21.594;2023-09-19T08:45:34;97032.66;;;19.96;66.66
50696;BME280;36665;51.786;21.594;2023-09-19T08:54:07;97131.21;;;20.19;66.80
50696;BME280;36665;51.786;21.594;2023-09-19T09:02:33;97194.05;;;20.33;66.89
50696;BME280;36665;51.786;21.594;2023-09-19T09:10:59;97219.34;;;20.39;66.83
50696;BME280;36665;51.786;21.594;2023-09-19T09:19:23;97269.36;;;20.50;66.82
50696;BME280;36665;51.786;21.594;2023-09-19T09:28:00;97282.97;;;20.53;66.95
50696;BME280;36665;51.786;21.594;2023-09-19T09:36:52;97256.42;;;20.45;66.98
50696;BME280;36665;51.786;21.594;2023-09-19T09:45:39;97227.56;;;20.38;66.81
50696;BME280;36665;51.786;21.594;2023-09-19T09:54:13;97198.92;;;20.32;67.09
50696;BME280;36665;51.786;21.594;2023-09-19T10:02:44;97215.34;;;20.34;67.08
50696;BME280;36665;51.786;21.594;2023-09-19T10:11:15;97246.40;;;20.42;66.92
50696;BME280;36665;51.786;21.594;2023-09-19T10:19:42;97237.96;;;20.40;66.89
50696;BME280;36665;51.786;21.594;2023-09-19T10:28:12;97214.99;;;20.34;67.01
50696;BME280;36665;51.786;21.594;2023-09-19T10:36:37;97194.93;;;20.29;67.11
50696;BME280;36665;51.786;21.594;2023-09-19T10:45:04;97223.53;;;20.35;67.15
50696;BME280;36665;51.786;21.594;2023-09-19T10:54:05;97238.16;;;20.39;67.12
50696;BME280;36665;51.786;21.594;2023-09-19T11:02:31;97178.86;;;20.24;67.07
50696;BME280;36665;51.786;21.594;2023-09-19T11:10:54;97102.09;;;20.06;67.08
50696;BME280;36665;51.786;21.594;2023-09-19T11:19:19;97066.44;;;19.98;67.12
50696;BME280;36665;51.786;21.594;2023-09-19T11:36:35;97098.23;;;20.05;67.29
50696;BME280;36665;51.786;21.594;2023-09-19T11:45:00;97107.86;;;20.07;67.11
50696;BME280;36665;51.786;21.594;2023-09-19T11:53:24;97098.91;;;20.05;67.06
50696;BME280;36665;51.786;21.594;2023-09-19T12:01:57;97063.71;;;19.96;67.18
50696;BME280;36665;51.786;21.594;2023-09-19T12:10:21;97035.12;;;19.88;67.39
50696;BME280;36665;51.786;21.594;2023-09-19T12:18:47;96980.81;;;19.76;67.24
50696;BME280;36665;51.786;21.594;2023-09-19T12:27:13;96898.73;;;19.57;67.40
50696;BME280;36665;51.786;21.594;2023-09-19T12:35:37;96796.92;;;19.32;67.24
50696;BME280;36665;51.786;21.594;2023-09-19T12:44:02;96701.31;;;19.09;67.34
50696;BME280;36665;51.786;21.594;2023-09-19T12:52:55;96634.74;;;18.93;67.35
50696;BME280;36665;51.786;21.594;2023-09-19T13:01:25;96567.57;;;18.77;67.44
50696;BME280;36665;51.786;21.594;2023-09-19T13:10:03;96512.52;;;18.63;67.29
50696;BME280;36665;51.786;21.594;2023-09-19T13:18:28;96447.70;;;18.48;67.43
50696;BME280;36665;51.786;21.594;2023-09-19T13:26:54;96411.29;;;18.39;67.35
50696;BME280;36665;51.786;21.594;2023-09-19T13:35:17;96396.20;;;18.36;67.43
50696;BME280;36665;51.786;21.594;2023-09-19T13:43:41;96391.64;;;18.34;67.33
50696;BME280;36665;51.786;21.594;2023-09-19T13:52:04;96378.41;;;18.30;67.44
50696;BME280;36665;51.786;21.594;2023-09-19T14:00:28;96381.04;;;18.31;67.39
50696;BME280;36665;51.786;21.594;2023-09-19T14:08:52;96422.52;;;18.40;67.47
50696;BME280;36665;51.786;21.594;2023-09-19T14:17:15;96455.39;;;18.48;67.41
50696;BME280;36665;51.786;21.594;2023-09-19T14:25:41;96479.95;;;18.53;67.37
50696;BME280;36665;51.786;21.594;2023-09-19T14:34:04;96490.92;;;18.56;67.55
50696;BME280;36665;51.786;21.594;2023-09-19T14:42:28;96503.17;;;18.58;67.70
50696;BME280;36665;51.786;21.594;2023-09-19T14:50:52;96525.12;;;18.63;67.50
50696;BME280;36665;51.786;21.594;2023-09-19T14:59:17;96564.90;;;18.73;67.70
50696;BME280;36665;51.786;21.594;2023-09-19T15:07:41;96585.67;;;18.77;67.94
50696;BME280;36665;51.786;21.594;2023-09-19T15:16:12;96578.52;;;18.75;67.86
50696;BME280;36665;51.786;21.594;2023-09-19T15:24:38;96583.23;;;18.76;67.86
50696;BME280;36665;51.786;21.594;2023-09-19T15:33:02;96599.40;;;18.79;68.07
50696;BME280;36665;51.786;21.594;2023-09-19T15:41:30;96611.30;;;18.81;68.00
50696;BME280;36665;51.786;21.594;2023-09-19T15:49:53;96587.74;;;18.75;67.97
50696;BME280;36665;51.786;21.594;2023-09-19T15:58:17;96557.92;;;18.69;68.09
50696;BME280;36665;51.786;21.594;2023-09-19T16:06:42;96549.16;;;18.65;68.23
50696;BME280;36665;51.786;21.594;2023-09-19T16:15:06;96549.61;;;18.66;68.34
50696;BME280;36665;51.786;21.594;2023-09-19T16:23:34;96549.63;;;18.64;68.22
50696;BME280;36665;51.786;21.594;2023-09-19T16:32:00;96552.48;;;18.65;68.51
50696;BME280;36665;51.786;21.594;2023-09-19T16:40:24;96541.42;;;18.62;68.38
50696;BME280;36665;51.786;21.594;2023-09-19T16:48:48;96508.77;;;18.54;68.30
50696;BME280;36665;51.786;21.594;2023-09-19T16:57:17;96468.55;;;18.44;68.47
50696;BME280;36665;51.786;21.594;2023-09-19T17:05:41;96441.14;;;18.37;68.47
50696;BME280;36665;51.786;21.594;2023-09-19T17:14:06;96403.98;;;18.27;68.63
50696;BME280;36665;51.786;21.594;2023-09-19T17:22:32;96384.86;;;18.22;68.51
50696;BME280;36665;51.786;21.594;2023-09-19T17:30:59;96371.77;;;18.19;68.49
50696;BME280;36665;51.786;21.594;2023-09-19T17:39:22;96349.38;;;18.13;68.72
50696;BME280;36665;51.786;21.594;2023-09-19T17:47:47;96315.46;;;18.05;68.81
50696;BME280;36665;51.786;21.594;2023-09-19T17:56:12;96287.55;;;17.98;68.68
50696;BME280;36665;51.786;21.594;2023-09-19T18:04:38;96260.97;;;17.90;68.83
50696;BME280;36665;51.786;21.594;2023-09-19T18:13:03;96239.44;;;17.85;68.69
50696;BME280;36665;51.786;21.594;2023-09-19T18:21:27;96218.18;;;17.79;68.83
50696;BME280;36665;51.786;21.594;2023-09-19T18:29:51;96191.05;;;17.73;68.95
50696;BME280;36665;51.786;21.594;2023-09-19T18:38:18;96162.81;;;17.65;68.96
50696;BME280;36665;51.786;21.594;2023-09-19T18:46:43;96124.13;;;17.55;68.97
50696;BME280;36665;51.786;21.594;2023-09-19T18:55:12;96087.20;;;17.46;69.01
50696;BME280;36665;51.786;21.594;2023-09-19T19:03:37;96055.20;;;17.38;68.87
50696;BME280;36665;51.786;21.594;2023-09-19T19:12:02;96029.05;;;17.32;68.98
50696;BME280;36665;51.786;21.594;2023-09-19T19:20:26;95998.27;;;17.24;69.07
50696;BME280;36665;51.786;21.594;2023-09-19T19:28:51;95964.49;;;17.16;69.12
50696;BME280;36665;51.786;21.594;2023-09-19T19:37:16;95929.73;;;17.07;69.17
50696;BME280;36665;51.786;21.594;2023-09-19T19:45:42;95871.80;;;16.92;69.15
50696;BME280;36665;51.786;21.594;2023-09-19T19:54:08;95812.77;;;16.78;69.24
50696;BME280;36665;51.786;21.594;2023-09-19T20:02:33;95765.23;;;16.66;69.10
50696;BME280;36665;51.786;21.594;2023-09-19T20:11:06;95727.69;;;16.56;69.42
50696;BME280;36665;51.786;21.594;2023-09-19T20:19:31;95676.15;;;16.44;69.31
50696;BME280;36665;51.786;21.594;2023-09-19T20:27:56;95623.95;;;16.31;69.14
50696;BME280;36665;51.786;21.594;2023-09-19T20:36:20;95563.91;;;16.16;69.24
50696;BME280;36665;51.786;21.594;2023-09-19T20:44:47;95494.90;;;15.99;69.40
50696;BME280;36665;51.786;21.594;2023-09-19T20:53:11;95433.09;;;15.84;69.37
50696;BME280;36665;51.786;21.594;2023-09-19T21:01:36;95386.27;;;15.71;69.30
50696;BME280;36665;51.786;21.594;2023-09-19T21:10:01;95320.91;;;15.55;69.33
50696;BME280;36665;51.786;21.594;2023-09-19T21:18:29;95224.77;;;15.31;69.39
50696;BME280;36665;51.786;21.594;2023-09-19T21:26:54;95106.73;;;15.01;69.47
50696;BME280;36665;51.786;21.594;2023-09-19T21:35:20;94989.99;;;14.72;69.28
50696;BME280;36665;51.786;21.594;2023-09-19T21:43:46;94895.61;;;14.49;69.19
50696;BME280;36665;51.786;21.594;2023-09-19T21:52:13;94813.50;;;14.28;69.29
50696;BME280;36665;51.786;21.594;2023-09-19T22:00:38;94733.56;;;14.09;69.20
50696;BME280;36665;51.786;21.594;2023-09-19T22:09:04;94629.20;;;13.82;69.26
50696;BME280;36665;51.786;21.594;2023-09-19T22:17:28;94514.80;;;13.53;69.34
50696;BME280;36665;51.786;21.594;2023-09-19T22:25:55;94395.70;;;13.23;69.32
50696;BME280;36665;51.786;21.594;2023-09-19T22:34:20;94286.70;;;12.95;69.26
50696;BME280;36665;51.786;21.594;2023-09-19T22:42:44;94199.16;;;12.73;69.11
50696;BME280;36665;51.786;21.594;2023-09-19T22:51:12;94139.59;;;12.57;69.04
50696;BME280;36665;51.786;21.594;2023-09-19T22:59:37;94089.01;;;12.45;69.20
50696;BME280;36665;51.786;21.594;2023-09-19T23:08:05;94026.52;;;12.28;69.23
50696;BME280;36665;51.786;21.594;2023-09-19T23:16:31;93945.20;;;12.08;69.08
50696;BME280;36665;51.786;21.594;2023-09-19T23:24:59;93851.56;;;11.83;69.13
50696;BME280;36665;51.786;21.594;2023-09-19T23:33:51;93774.81;;;11.64;69.02
50696;BME280;36665;51.786;21.594;2023-09-19T23:42:15;93741.17;;;11.56;69.14
50696;BME280;36665;51.786;21.594;2023-09-19T23:50:41;93700.17;;;11.45;68.96
50696;BME280;36665;51.786;21.594;2023-09-19T23:59:09;93640.79;;;11.29;69.10
